createdAt,value
2023-06-10T00:00:06.860Z,2389.00
2023-06-10T00:01:06.844Z,2390.00
2023-06-10T00:02:06.872Z,2390.00
2023-06-10T00:03:06.936Z,2385.00
2023-06-10T00:04:06.945Z,2389.00
2023-06-10T00:05:07.167Z,2384.00
2023-06-10T00:06:06.830Z,2385.00
2023-06-10T00:07:06.789Z,2395.00
2023-06-10T00:08:06.799Z,2398.00
2023-06-10T00:09:06.802Z,2384.00
2023-06-10T00:10:06.767Z,2367.00
2023-06-10T00:11:06.760Z,2380.00
2023-06-10T00:12:06.769Z,2367.00
2023-06-10T00:13:06.736Z,2377.00
2023-06-10T00:14:06.731Z,2375.00
2023-06-10T00:15:07.046Z,2376.00
2023-06-10T00:16:06.721Z,2378.00
2023-06-10T00:17:06.685Z,2368.00
2023-06-10T00:18:06.739Z,2371.00
2023-06-10T00:19:06.672Z,2372.00
2023-06-10T00:20:06.654Z,2369.00
2023-06-10T00:21:06.747Z,2358.00
2023-06-10T00:22:06.725Z,2357.00
2023-06-10T00:23:06.717Z,2352.00
2023-06-10T00:24:06.788Z,2351.00
2023-06-10T00:25:06.918Z,2340.00
2023-06-10T00:26:06.749Z,2356.00
2023-06-10T00:27:06.739Z,2365.00
2023-06-10T00:28:06.742Z,2365.00
2023-06-10T00:29:06.773Z,2357.00
2023-06-10T00:30:06.723Z,2341.00
2023-06-10T00:31:06.702Z,2354.00
2023-06-10T00:32:06.781Z,2348.00
2023-06-10T00:33:06.887Z,2338.00
2023-06-10T00:34:06.970Z,2349.00
2023-06-10T00:35:07.537Z,2344.00
2023-06-10T00:36:07.095Z,2342.00
2023-06-10T00:37:07.040Z,2333.00
2023-06-10T00:38:07.019Z,2331.00
2023-06-10T00:39:07.016Z,2339.00
2023-06-10T00:40:07.007Z,2339.00
2023-06-10T00:41:06.991Z,2332.00
2023-06-10T00:42:06.982Z,2335.00
2023-06-10T00:43:07.023Z,2326.00
2023-06-10T00:44:07.003Z,2345.00
2023-06-10T00:45:07.348Z,2329.00
2023-06-10T00:46:07.110Z,2332.00
2023-06-10T00:47:07.077Z,2312.00
2023-06-10T00:48:07.099Z,2327.00
2023-06-10T00:49:07.068Z,2321.00
2023-06-10T00:50:07.061Z,2324.00
2023-06-10T00:51:07.099Z,2321.00
2023-06-10T00:52:07.074Z,2322.00
2023-06-10T00:53:07.085Z,2323.00
2023-06-10T00:54:07.079Z,2324.00
2023-06-10T00:55:07.383Z,2320.00
2023-06-10T00:56:07.039Z,2325.00
2023-06-10T00:57:07.059Z,2312.00
2023-06-10T00:58:07.026Z,2330.00
2023-06-10T00:59:06.988Z,2308.00
2023-06-10T01:00:06.982Z,2315.00
2023-06-10T01:01:06.987Z,2313.00
2023-06-10T01:02:06.959Z,2310.00
2023-06-10T01:03:07.044Z,2314.00
2023-06-10T01:04:06.907Z,2296.00
2023-06-10T01:05:07.272Z,2314.00
2023-06-10T01:06:06.895Z,2315.00
2023-06-10T01:07:06.853Z,2315.00
2023-06-10T01:08:06.855Z,2317.00
2023-06-10T01:09:06.834Z,2321.00
2023-06-10T01:10:06.840Z,2316.00
2023-06-10T01:11:06.803Z,2312.00
2023-06-10T01:12:06.788Z,2316.00
2023-06-10T01:13:06.768Z,2296.00
2023-06-10T01:14:06.768Z,2289.00
2023-06-10T01:15:06.839Z,2290.00
2023-06-10T01:16:06.728Z,2293.00
2023-06-10T01:17:06.715Z,2295.00
2023-06-10T01:18:06.739Z,2297.00
2023-06-10T01:19:06.698Z,2304.00
2023-06-10T01:20:06.671Z,2297.00
2023-06-10T01:21:06.662Z,2298.00
2023-06-10T01:22:06.738Z,2298.00
2023-06-10T01:23:06.618Z,2307.00
2023-06-10T01:24:06.645Z,2295.00
2023-06-10T01:25:06.806Z,2293.00
2023-06-10T01:26:06.618Z,2288.00
2023-06-10T01:27:06.574Z,2314.00
2023-06-10T01:28:06.555Z,2283.00
2023-06-10T01:29:06.546Z,2285.00
2023-06-10T01:30:06.535Z,2287.00
2023-06-10T01:31:06.544Z,2290.00
2023-06-10T01:32:06.517Z,2287.00
2023-06-10T01:33:06.533Z,2274.00
2023-06-10T01:34:06.520Z,2284.00
2023-06-10T01:35:06.748Z,2283.00
2023-06-10T01:36:06.717Z,2269.00
2023-06-10T01:37:06.811Z,2268.00
2023-06-10T01:38:06.909Z,2275.00
2023-06-10T01:39:07.036Z,2263.00
2023-06-10T01:40:07.196Z,2276.00
2023-06-10T01:41:07.169Z,2245.00
2023-06-10T01:42:07.072Z,2256.00
2023-06-10T01:43:07.093Z,2261.00
2023-06-10T01:44:07.125Z,2255.00
2023-06-10T01:45:07.522Z,2264.00
2023-06-10T01:46:07.206Z,2254.00
2023-06-10T01:47:07.210Z,2245.00
2023-06-10T01:48:07.162Z,2250.00
2023-06-10T01:49:07.158Z,2251.00
2023-06-10T01:50:07.115Z,2262.00
2023-06-10T01:51:07.158Z,2258.00
2023-06-10T01:52:07.189Z,2246.00
2023-06-10T01:53:07.130Z,2238.00
2023-06-10T01:54:07.107Z,2248.00
2023-06-10T01:55:07.442Z,2247.00
2023-06-10T01:56:07.205Z,2269.00
2023-06-10T01:57:07.247Z,2238.00
2023-06-10T01:58:07.192Z,2237.00
2023-06-10T01:59:07.200Z,2245.00
2023-06-10T02:00:07.127Z,2226.00
2023-06-10T02:01:07.176Z,2231.00
2023-06-10T02:02:07.127Z,2239.00
2023-06-10T02:03:07.252Z,2228.00
2023-06-10T02:04:07.326Z,2236.00
2023-06-10T02:05:07.327Z,2234.00
2023-06-10T02:06:07.297Z,2222.00
2023-06-10T02:07:07.223Z,2233.00
2023-06-10T02:08:07.178Z,2238.00
2023-06-10T02:09:07.167Z,2223.00
2023-06-10T02:10:07.156Z,2211.00
2023-06-10T02:11:07.139Z,2225.00
2023-06-10T02:12:07.258Z,2220.00
2023-06-10T02:13:07.174Z,2233.00
2023-06-10T02:14:07.174Z,2204.00
2023-06-10T02:15:07.395Z,2232.00
2023-06-10T02:16:07.231Z,2205.00
2023-06-10T02:17:07.171Z,2201.00
2023-06-10T02:18:07.233Z,2208.00
2023-06-10T02:19:07.808Z,2195.00
2023-06-10T02:20:07.184Z,2207.00
2023-06-10T02:21:07.184Z,2196.00
2023-06-10T02:22:07.189Z,2212.00
2023-06-10T02:23:07.215Z,2205.00
2023-06-10T02:24:07.232Z,2196.00
2023-06-10T02:25:07.414Z,2203.00
2023-06-10T02:26:07.225Z,2212.00
2023-06-10T02:27:07.230Z,2205.00
2023-06-10T02:28:07.240Z,2187.00
2023-06-10T02:29:07.263Z,2191.00
2023-06-10T02:30:07.266Z,2203.00
2023-06-10T02:31:07.281Z,2190.00
2023-06-10T02:32:10.457Z,2191.00
2023-06-10T02:33:07.315Z,2192.00
2023-06-10T02:34:07.267Z,2188.00
2023-06-10T02:35:07.515Z,2192.00
2023-06-10T02:36:07.242Z,2188.00
2023-06-10T02:37:07.215Z,2196.00
2023-06-10T02:38:07.217Z,2183.00
2023-06-10T02:39:07.178Z,2184.00
2023-06-10T02:40:07.194Z,2198.00
2023-06-10T02:41:07.144Z,2176.00
2023-06-10T02:42:07.131Z,2190.00
2023-06-10T02:43:07.167Z,2178.00
2023-06-10T02:44:07.086Z,2169.00
2023-06-10T02:45:07.293Z,2181.00
2023-06-10T02:46:07.086Z,2172.00
2023-06-10T02:47:07.026Z,2182.00
2023-06-10T02:48:07.032Z,2181.00
2023-06-10T02:49:06.992Z,2176.00
2023-06-10T02:50:06.996Z,2177.00
2023-06-10T02:51:06.975Z,2178.00
2023-06-10T02:52:06.954Z,2175.00
2023-06-10T02:53:06.932Z,2188.00
2023-06-10T02:54:06.905Z,2161.00
2023-06-10T02:55:07.123Z,2176.00
2023-06-10T02:56:06.892Z,2168.00
2023-06-10T02:57:06.892Z,2189.00
2023-06-10T02:58:06.854Z,2176.00
2023-06-10T02:59:06.851Z,2160.00
2023-06-10T03:00:06.843Z,2162.00
2023-06-10T03:01:06.848Z,2166.00
2023-06-10T03:02:06.818Z,2152.00
2023-06-10T03:03:06.852Z,2170.00
2023-06-10T03:04:06.865Z,2177.00
2023-06-10T03:05:07.158Z,2148.00
2023-06-10T03:06:06.750Z,2124.00
2023-06-10T03:07:06.760Z,2100.00
2023-06-10T03:08:06.787Z,2076.00
2023-06-10T03:09:06.800Z,2035.00
2023-06-10T03:10:06.826Z,1993.00
2023-06-10T03:11:06.854Z,1937.00
2023-06-10T03:12:06.858Z,1904.00
2023-06-10T03:13:06.882Z,1868.00
2023-06-10T03:14:06.904Z,1820.00
2023-06-10T03:15:07.088Z,1774.00
2023-06-10T03:16:06.979Z,1747.00
2023-06-10T03:17:06.962Z,1691.00
2023-06-10T03:18:07.019Z,1679.00
2023-06-10T03:19:07.076Z,1635.00
2023-06-10T03:20:07.073Z,1617.00
2023-06-10T03:21:07.077Z,1573.00
2023-06-10T03:22:07.104Z,1537.00
2023-06-10T03:23:07.147Z,1534.00
2023-06-10T03:24:07.236Z,1523.00
2023-06-10T03:25:07.592Z,1469.00
2023-06-10T03:26:07.263Z,1442.00
2023-06-10T03:27:07.310Z,1410.00
2023-06-10T03:28:07.363Z,1386.00
2023-06-10T03:29:07.385Z,1385.00
2023-06-10T03:30:07.450Z,1343.00
2023-06-10T03:31:07.498Z,1330.00
2023-06-10T03:32:07.569Z,1283.00
2023-06-10T03:33:07.627Z,1243.00
2023-06-10T03:34:07.626Z,1261.00
2023-06-10T03:35:08.041Z,1218.00
2023-06-10T03:36:07.718Z,1200.00
2023-06-10T03:37:07.771Z,1156.00
2023-06-10T03:38:07.831Z,1169.00
2023-06-10T03:39:07.888Z,1127.00
2023-06-10T03:40:07.951Z,1090.00
2023-06-10T03:41:08.009Z,1079.00
2023-06-10T03:42:08.076Z,1095.00
2023-06-10T03:43:08.125Z,1081.00
2023-06-10T03:44:08.179Z,1066.00
2023-06-10T03:45:08.750Z,1060.00
2023-06-10T03:46:08.301Z,1048.00
2023-06-10T03:47:08.334Z,1045.00
2023-06-10T03:48:08.484Z,1030.00
2023-06-10T03:49:08.459Z,1026.00
2023-06-10T03:50:08.504Z,1013.00
2023-06-10T03:51:08.566Z,991.00
2023-06-10T03:52:08.598Z,1005.00
2023-06-10T03:53:08.662Z,993.00
2023-06-10T03:54:08.767Z,998.00
2023-06-10T03:55:08.989Z,989.00
2023-06-10T03:56:08.848Z,989.00
2023-06-10T03:57:08.895Z,971.00
2023-06-10T03:58:08.984Z,960.00
2023-06-10T03:59:09.034Z,923.00
2023-06-10T04:00:09.097Z,958.00
2023-06-10T04:01:09.137Z,945.00
2023-06-10T04:02:09.184Z,946.00
2023-06-10T04:03:09.226Z,951.00
2023-06-10T04:04:09.119Z,968.00
2023-06-10T04:05:09.338Z,991.00
2023-06-10T04:06:09.138Z,1034.00
2023-06-10T04:07:09.103Z,1026.00
2023-06-10T04:08:09.095Z,1021.00
2023-06-10T04:09:09.116Z,1008.00
2023-06-10T04:10:09.091Z,1010.00
2023-06-10T04:11:09.090Z,993.00
2023-06-10T04:12:09.076Z,992.00
2023-06-10T04:13:09.075Z,990.00
2023-06-10T04:14:09.107Z,999.00
2023-06-10T04:15:09.352Z,991.00
2023-06-10T04:16:09.057Z,961.00
2023-06-10T04:17:09.100Z,964.00
2023-06-10T04:18:09.075Z,969.00
2023-06-10T04:19:09.037Z,973.00
2023-06-10T04:20:09.063Z,984.00
2023-06-10T04:21:09.035Z,1015.00
2023-06-10T04:22:09.026Z,1002.00
2023-06-10T04:23:09.048Z,1017.00
2023-06-10T04:24:09.108Z,1021.00
2023-06-10T04:25:09.271Z,1030.00
2023-06-10T04:26:09.058Z,1033.00
2023-06-10T04:27:09.066Z,1056.00
2023-06-10T04:28:09.067Z,1064.00
2023-06-10T04:29:09.068Z,1076.00
2023-06-10T04:30:09.086Z,1090.00
2023-06-10T04:31:09.195Z,1088.00
2023-06-10T04:32:09.114Z,1093.00
2023-06-10T04:33:09.230Z,1096.00
2023-06-10T04:34:09.146Z,1097.00
2023-06-10T04:35:09.308Z,1115.00
2023-06-10T04:36:09.168Z,1113.00
2023-06-10T04:37:09.177Z,1109.00
2023-06-10T04:38:09.178Z,1107.00
2023-06-10T04:39:09.164Z,1099.00
2023-06-10T04:40:09.156Z,1100.00
2023-06-10T04:41:09.169Z,1100.00
2023-06-10T04:42:09.122Z,1102.00
2023-06-10T04:43:09.132Z,1109.00
2023-06-10T04:44:09.102Z,1120.00
2023-06-10T04:45:09.459Z,1126.00
2023-06-10T04:46:09.456Z,1127.00
2023-06-10T04:47:09.064Z,1139.00
2023-06-10T04:48:09.107Z,1149.00
2023-06-10T04:49:09.040Z,1147.00
2023-06-10T04:50:09.037Z,1141.00
2023-06-10T04:51:09.028Z,1143.00
2023-06-10T04:52:09.023Z,1141.00
2023-06-10T04:53:09.018Z,1146.00
2023-06-10T04:54:09.045Z,1146.00
2023-06-10T04:55:09.234Z,1158.00
2023-06-10T04:56:09.081Z,1165.00
2023-06-10T04:57:09.077Z,1164.00
2023-06-10T04:58:09.012Z,1174.00
2023-06-10T04:59:09.023Z,1181.00
2023-06-10T05:00:09.073Z,1172.00
2023-06-10T05:01:09.014Z,1179.00
2023-06-10T05:02:09.095Z,1186.00
2023-06-10T05:03:09.089Z,1193.00
2023-06-10T05:04:09.153Z,1205.00
2023-06-10T05:05:09.340Z,1207.00
2023-06-10T05:06:09.103Z,1208.00
2023-06-10T05:07:09.303Z,1202.00
2023-06-10T05:08:09.328Z,1208.00
2023-06-10T05:09:09.168Z,1210.00
2023-06-10T05:10:09.269Z,1208.00
2023-06-10T05:11:09.303Z,1212.00
2023-06-10T05:12:09.313Z,1221.00
2023-06-10T05:13:09.272Z,1218.00
2023-06-10T05:14:09.279Z,1224.00
2023-06-10T05:15:09.682Z,1230.00
2023-06-10T05:16:09.372Z,1229.00
2023-06-10T05:17:09.365Z,1219.00
2023-06-10T05:18:09.474Z,1229.00
2023-06-10T05:19:09.408Z,1222.00
2023-06-10T05:20:09.447Z,1229.00
2023-06-10T05:21:09.462Z,1235.00
2023-06-10T05:22:09.555Z,1238.00
2023-06-10T05:23:09.512Z,1237.00
2023-06-10T05:24:09.585Z,1240.00
2023-06-10T05:25:09.950Z,1253.00
2023-06-10T05:26:09.595Z,1247.00
2023-06-10T05:27:09.633Z,1246.00
2023-06-10T05:28:09.660Z,1263.00
2023-06-10T05:29:09.679Z,1261.00
2023-06-10T05:30:09.703Z,1262.00
2023-06-10T05:31:09.751Z,1265.00
2023-06-10T05:32:09.921Z,1264.00
2023-06-10T05:33:09.892Z,1264.00
2023-06-10T05:34:09.812Z,1262.00
2023-06-10T05:35:10.057Z,1266.00
2023-06-10T05:36:09.911Z,1270.00
2023-06-10T05:37:09.979Z,1261.00
2023-06-10T05:38:10.064Z,1273.00
2023-06-10T05:39:09.937Z,1268.00
2023-06-10T05:40:09.965Z,1283.00
2023-06-10T05:41:09.999Z,1278.00
2023-06-10T05:42:10.039Z,1279.00
2023-06-10T05:43:10.074Z,1275.00
2023-06-10T05:44:11.921Z,1281.00
2023-06-10T05:45:10.337Z,1281.00
2023-06-10T05:46:10.258Z,1282.00
2023-06-10T05:47:10.073Z,1284.00
2023-06-10T05:48:10.126Z,1292.00
2023-06-10T05:49:10.046Z,1308.00
2023-06-10T05:50:10.041Z,1312.00
2023-06-10T05:51:10.036Z,1316.00
2023-06-10T05:52:10.054Z,1314.00
2023-06-10T05:53:10.064Z,1320.00
2023-06-10T05:54:10.041Z,1312.00
2023-06-10T05:55:10.429Z,1309.00
2023-06-10T05:56:10.041Z,1311.00
2023-06-10T05:57:10.057Z,1305.00
2023-06-10T05:58:10.029Z,1301.00
2023-06-10T05:59:09.993Z,1300.00
2023-06-10T06:00:10.003Z,1304.00
2023-06-10T06:01:10.003Z,1298.00
2023-06-10T06:02:10.020Z,1307.00
2023-06-10T06:03:10.155Z,1325.00
2023-06-10T06:04:10.027Z,1340.00
2023-06-10T06:05:10.351Z,1339.00
2023-06-10T06:06:09.964Z,1352.00
2023-06-10T06:07:09.949Z,1367.00
2023-06-10T06:08:09.951Z,1379.00
2023-06-10T06:09:09.940Z,1375.00
2023-06-10T06:10:09.957Z,1376.00
2023-06-10T06:11:09.939Z,1379.00
2023-06-10T06:12:09.944Z,1387.00
2023-06-10T06:13:09.936Z,1377.00
2023-06-10T06:14:09.906Z,1360.00
2023-06-10T06:15:10.089Z,1348.00
2023-06-10T06:16:09.902Z,1313.00
2023-06-10T06:17:09.856Z,1314.00
2023-06-10T06:18:09.903Z,1314.00
2023-06-10T06:19:09.842Z,1302.00
2023-06-10T06:20:09.854Z,1296.00
2023-06-10T06:21:09.832Z,1290.00
2023-06-10T06:22:09.818Z,1267.00
2023-06-10T06:23:09.811Z,1262.00
2023-06-10T06:24:09.866Z,1256.00
2023-06-10T06:25:10.280Z,1234.00
2023-06-10T06:26:09.780Z,1218.00
2023-06-10T06:27:09.771Z,1205.00
2023-06-10T06:28:09.800Z,1196.00
2023-06-10T06:29:09.746Z,1212.00
2023-06-10T06:30:09.748Z,1211.00
2023-06-10T06:31:09.772Z,1218.00
2023-06-10T06:32:09.712Z,1219.00
2023-06-10T06:33:09.754Z,1211.00
2023-06-10T06:34:09.684Z,1217.00
2023-06-10T06:35:10.099Z,1220.00
2023-06-10T06:36:09.651Z,1220.00
2023-06-10T06:37:09.629Z,1231.00
2023-06-10T06:38:09.638Z,1231.00
2023-06-10T06:39:09.635Z,1232.00
2023-06-10T06:40:09.610Z,1236.00
2023-06-10T06:41:09.594Z,1233.00
2023-06-10T06:42:09.606Z,1238.00
2023-06-10T06:43:09.580Z,1252.00
2023-06-10T06:44:09.618Z,1265.00
2023-06-10T06:45:09.766Z,1234.00
2023-06-10T06:46:09.552Z,1242.00
2023-06-10T06:47:09.558Z,1254.00
2023-06-10T06:48:09.673Z,1278.00
2023-06-10T06:49:09.520Z,1311.00
2023-06-10T06:50:09.514Z,1311.00
2023-06-10T06:51:09.534Z,1322.00
2023-06-10T06:52:09.494Z,1320.00
2023-06-10T06:53:09.503Z,1309.00
2023-06-10T06:54:09.484Z,1311.00
2023-06-10T06:55:09.810Z,1302.00
2023-06-10T06:56:09.474Z,1290.00
2023-06-10T06:57:09.461Z,1271.00
2023-06-10T06:58:09.462Z,1259.00
2023-06-10T06:59:09.458Z,1238.00
2023-06-10T07:00:09.431Z,1200.00
2023-06-10T07:01:09.518Z,1164.00
2023-06-10T07:02:09.430Z,1157.00
2023-06-10T07:03:09.528Z,1126.00
2023-06-10T07:04:09.418Z,1101.00
2023-06-10T07:05:09.712Z,1041.00
2023-06-10T07:06:09.371Z,1023.00
2023-06-10T07:07:09.365Z,977.00
2023-06-10T07:08:09.363Z,951.00
2023-06-10T07:09:09.356Z,913.00
2023-06-10T07:10:09.357Z,867.00
2023-06-10T07:11:09.334Z,821.00
2023-06-10T07:12:09.340Z,773.00
2023-06-10T07:13:09.326Z,726.00
2023-06-10T07:14:09.305Z,672.00
2023-06-10T07:15:09.644Z,637.00
2023-06-10T07:16:09.287Z,626.00
2023-06-10T07:17:09.449Z,607.00
2023-06-10T07:18:09.362Z,576.00
2023-06-10T07:19:09.282Z,553.00
2023-06-10T07:20:09.285Z,540.00
2023-06-10T07:21:09.273Z,528.00
2023-06-10T07:22:09.250Z,500.00
2023-06-10T07:23:09.256Z,499.00
2023-06-10T07:24:09.250Z,504.00
2023-06-10T07:25:09.543Z,503.00
2023-06-10T07:26:09.214Z,500.00
2023-06-10T07:27:09.199Z,501.00
2023-06-10T07:28:09.200Z,506.00
2023-06-10T07:29:09.185Z,492.00
2023-06-10T07:30:09.163Z,471.00
2023-06-10T07:31:09.222Z,454.00
2023-06-10T07:32:09.156Z,436.00
2023-06-10T07:33:09.244Z,428.00
2023-06-10T07:34:09.178Z,468.00
2023-06-10T07:35:09.475Z,500.00
2023-06-10T07:36:09.126Z,504.00
2023-06-10T07:37:09.158Z,500.00
2023-06-10T07:38:09.195Z,503.00
2023-06-10T07:39:09.246Z,502.00
2023-06-10T07:40:09.286Z,500.00
2023-06-10T07:41:09.337Z,509.00
2023-06-10T07:42:09.367Z,498.00
2023-06-10T07:43:09.421Z,500.00
2023-06-10T07:44:09.449Z,503.00
2023-06-10T07:45:09.623Z,501.00
2023-06-10T07:46:09.565Z,510.00
2023-06-10T07:47:09.605Z,500.00
2023-06-10T07:48:09.690Z,505.00
2023-06-10T07:49:09.704Z,502.00
2023-06-10T07:50:09.767Z,500.00
2023-06-10T07:51:09.823Z,502.00
2023-06-10T07:52:09.882Z,500.00
2023-06-10T07:53:09.966Z,507.00
2023-06-10T07:54:10.002Z,501.00
2023-06-10T07:55:10.166Z,506.00
2023-06-10T07:56:10.127Z,502.00
2023-06-10T07:57:10.170Z,499.00
2023-06-10T07:58:10.162Z,482.00
2023-06-10T07:59:10.130Z,457.00
2023-06-10T08:00:10.138Z,462.00
2023-06-10T08:01:10.107Z,455.00
2023-06-10T08:02:10.086Z,437.00
2023-06-10T08:03:10.176Z,477.00
2023-06-10T08:04:10.171Z,497.00
2023-06-10T08:05:10.320Z,506.00
2023-06-10T08:06:10.031Z,499.00
2023-06-10T08:07:10.068Z,506.00
2023-06-10T08:08:10.121Z,510.00
2023-06-10T08:09:10.168Z,500.00
2023-06-10T08:10:10.234Z,502.00
2023-06-10T08:11:10.259Z,504.00
2023-06-10T08:12:10.304Z,504.00
2023-06-10T08:13:10.349Z,504.00
2023-06-10T08:14:10.410Z,506.00
2023-06-10T08:15:10.804Z,505.00
2023-06-10T08:16:10.500Z,520.00
2023-06-10T08:17:10.512Z,515.00
2023-06-10T08:18:10.645Z,507.00
2023-06-10T08:19:10.613Z,500.00
2023-06-10T08:20:10.620Z,508.00
2023-06-10T08:21:10.656Z,500.00
2023-06-10T08:22:10.693Z,500.00
2023-06-10T08:23:10.742Z,503.00
2023-06-10T08:24:10.875Z,511.00
2023-06-10T08:25:11.148Z,504.00
2023-06-10T08:26:10.851Z,507.00
2023-06-10T08:27:10.876Z,503.00
2023-06-10T08:28:10.928Z,501.00
2023-06-10T08:29:10.938Z,507.00
2023-06-10T08:30:10.983Z,500.00
2023-06-10T08:31:11.005Z,506.00
2023-06-10T08:32:11.082Z,504.00
2023-06-10T08:33:11.141Z,500.00
2023-06-10T08:34:11.028Z,479.00
2023-06-10T08:35:11.222Z,472.00
2023-06-10T08:36:11.002Z,460.00
2023-06-10T08:37:10.981Z,450.00
2023-06-10T08:38:10.966Z,488.00
2023-06-10T08:39:10.941Z,500.00
2023-06-10T08:40:10.920Z,500.00
2023-06-10T08:41:10.918Z,516.00
2023-06-10T08:42:10.922Z,500.00
2023-06-10T08:43:10.901Z,504.00
2023-06-10T08:44:10.850Z,493.00
2023-06-10T08:45:11.128Z,480.00
2023-06-10T08:46:10.818Z,475.00
2023-06-10T08:47:10.804Z,471.00
2023-06-10T08:48:10.875Z,469.00
2023-06-10T08:49:10.839Z,464.00
2023-06-10T08:50:12.711Z,463.00
2023-06-10T08:51:10.739Z,459.00
2023-06-10T08:52:10.728Z,503.00
2023-06-10T08:53:10.727Z,503.00
2023-06-10T08:54:10.698Z,508.00
2023-06-10T08:55:10.920Z,506.00
2023-06-10T08:56:10.679Z,516.00
2023-06-10T08:57:10.666Z,510.00
2023-06-10T08:58:10.637Z,519.00
2023-06-10T08:59:10.677Z,519.00
2023-06-10T09:00:10.887Z,518.00
2023-06-10T09:01:10.782Z,518.00
2023-06-10T09:02:10.710Z,519.00
2023-06-10T09:03:10.776Z,523.00
2023-06-10T09:04:10.723Z,528.00
2023-06-10T09:05:10.654Z,529.00
2023-06-10T09:06:10.645Z,560.00
2023-06-10T09:07:10.600Z,604.00
2023-06-10T09:08:10.589Z,638.00
2023-06-10T09:09:10.572Z,661.00
2023-06-10T09:10:10.767Z,778.00
2023-06-10T09:11:10.558Z,934.00
2023-06-10T09:12:10.562Z,982.00
2023-06-10T09:13:10.529Z,1072.00
2023-06-10T09:14:10.509Z,1181.00
2023-06-10T09:15:10.498Z,1237.00
2023-06-10T09:16:10.520Z,1322.00
2023-06-10T09:17:10.508Z,1410.00
2023-06-10T09:18:10.613Z,1452.00
2023-06-10T09:19:10.569Z,1496.00
2023-06-10T09:20:11.232Z,1578.00
2023-06-10T09:21:10.538Z,1580.00
2023-06-10T09:22:10.573Z,1593.00
2023-06-10T09:23:10.576Z,1624.00
2023-06-10T09:24:10.582Z,1689.00
2023-06-10T09:25:10.507Z,1829.00
2023-06-10T09:26:10.835Z,1911.00
2023-06-10T09:27:10.529Z,1915.00
2023-06-10T09:28:10.457Z,1977.00
2023-06-10T09:29:10.586Z,2032.00
2023-06-10T09:30:10.591Z,2063.00
2023-06-10T09:31:10.453Z,2106.00
2023-06-10T09:32:10.778Z,2136.00
2023-06-10T09:33:10.436Z,2169.00
2023-06-10T09:34:10.326Z,2221.00
2023-06-10T09:35:10.284Z,2240.00
2023-06-10T09:36:10.308Z,2277.00
2023-06-10T09:37:10.299Z,2339.00
2023-06-10T09:38:10.920Z,2359.00
2023-06-10T09:39:10.228Z,2385.00
2023-06-10T09:40:10.583Z,2401.00
2023-06-10T09:41:10.175Z,2452.00
2023-06-10T09:42:10.222Z,2493.00
2023-06-10T09:43:10.161Z,2507.00
2023-06-10T09:44:10.340Z,2546.00
2023-06-10T09:45:10.108Z,2555.00
2023-06-10T09:46:10.121Z,2566.00
2023-06-10T09:47:10.073Z,2608.00
2023-06-10T09:48:10.108Z,2655.00
2023-06-10T09:49:10.054Z,2691.00
2023-06-10T09:50:11.413Z,2728.00
2023-06-10T09:51:10.091Z,2769.00
2023-06-10T09:52:10.035Z,2800.00
2023-06-10T09:53:10.001Z,2801.00
2023-06-10T09:54:09.952Z,2811.00
2023-06-10T09:55:09.943Z,2831.00
2023-06-10T09:56:11.086Z,2862.00
2023-06-10T09:57:09.956Z,2925.00
2023-06-10T09:58:09.962Z,2957.00
2023-06-10T09:59:09.864Z,2990.00
2023-06-10T10:00:10.193Z,3001.00
2023-06-10T10:01:09.844Z,3037.00
2023-06-10T10:02:11.349Z,3052.00
2023-06-10T10:03:09.833Z,3062.00
2023-06-10T10:04:09.796Z,3078.00
2023-06-10T10:05:10.051Z,3097.00
2023-06-10T10:06:09.786Z,3129.00
2023-06-10T10:07:09.750Z,3131.00
2023-06-10T10:08:09.734Z,3143.00
2023-06-10T10:09:09.792Z,3154.00
2023-06-10T10:10:09.715Z,3157.00
2023-06-10T10:11:09.713Z,3196.00
2023-06-10T10:12:09.705Z,3207.00
2023-06-10T10:13:09.747Z,3222.00
2023-06-10T10:14:10.878Z,3232.00
2023-06-10T10:15:10.029Z,3249.00
2023-06-10T10:16:09.762Z,3249.00
2023-06-10T10:17:09.863Z,3255.00
2023-06-10T10:18:10.104Z,3265.00
2023-06-10T10:19:09.698Z,3294.00
2023-06-10T10:20:09.673Z,3338.00
2023-06-10T10:21:09.649Z,3355.00
2023-06-10T10:22:09.622Z,3367.00
2023-06-10T10:23:09.626Z,3379.00
2023-06-10T10:24:09.605Z,3387.00
2023-06-10T10:25:09.902Z,3397.00
2023-06-10T10:26:10.871Z,3396.00
2023-06-10T10:27:09.597Z,3394.00
2023-06-10T10:28:09.546Z,3406.00
2023-06-10T10:29:09.513Z,3418.00
2023-06-10T10:30:09.592Z,3434.00
2023-06-10T10:31:09.518Z,3433.00
2023-06-10T10:32:09.676Z,3448.00
2023-06-10T10:33:11.054Z,3463.00
2023-06-10T10:34:09.779Z,3480.00
2023-06-10T10:35:09.918Z,3476.00
2023-06-10T10:36:09.625Z,3477.00
2023-06-10T10:37:09.678Z,3481.00
2023-06-10T10:38:09.586Z,3489.00
2023-06-10T10:39:09.565Z,3504.00
2023-06-10T10:40:09.566Z,3479.00
2023-06-10T10:41:09.534Z,3487.00
2023-06-10T10:42:09.622Z,3500.00
2023-06-10T10:43:09.512Z,3529.00
2023-06-10T10:44:09.497Z,3562.00
2023-06-10T10:45:09.738Z,3566.00
2023-06-10T10:46:09.473Z,3567.00
2023-06-10T10:47:09.430Z,3569.00
2023-06-10T10:48:09.458Z,3572.00
2023-06-10T10:49:09.432Z,3578.00
2023-06-10T10:50:10.039Z,3590.00
2023-06-10T10:51:09.372Z,3582.00
2023-06-10T10:52:09.357Z,3594.00
2023-06-10T10:53:09.362Z,3610.00
2023-06-10T10:54:09.304Z,3605.00
2023-06-10T10:55:09.525Z,3608.00
2023-06-10T10:56:09.844Z,3596.00
2023-06-10T10:57:09.604Z,3604.00
2023-06-10T10:58:09.501Z,3606.00
2023-06-10T10:59:09.512Z,3589.00
2023-06-10T11:00:09.655Z,3603.00
2023-06-10T11:01:09.613Z,3620.00
2023-06-10T11:02:09.798Z,3613.00
2023-06-10T11:03:11.485Z,3621.00
2023-06-10T11:04:09.897Z,3624.00
2023-06-10T11:05:10.055Z,3618.00
2023-06-10T11:06:09.823Z,3623.00
2023-06-10T11:07:09.882Z,3632.00
2023-06-10T11:08:09.926Z,3621.00
2023-06-10T11:09:10.044Z,3633.00
2023-06-10T11:10:10.038Z,3628.00
2023-06-10T11:11:10.053Z,3622.00
2023-06-10T11:12:10.108Z,3632.00
2023-06-10T11:13:10.178Z,3627.00
2023-06-10T11:14:10.218Z,3630.00
2023-06-10T11:15:10.598Z,3631.00
2023-06-10T11:16:10.312Z,3642.00
2023-06-10T11:17:10.341Z,3633.00
2023-06-10T11:18:10.404Z,3641.00
2023-06-10T11:19:10.592Z,3653.00
2023-06-10T11:20:10.393Z,3654.00
2023-06-10T11:21:10.397Z,3651.00
2023-06-10T11:22:10.344Z,3639.00
2023-06-10T11:23:10.398Z,3657.00
2023-06-10T11:24:10.419Z,3662.00
2023-06-10T11:25:10.553Z,3654.00
2023-06-10T11:26:10.254Z,3657.00
2023-06-10T11:27:10.242Z,3638.00
2023-06-10T11:28:10.361Z,3654.00
2023-06-10T11:29:10.344Z,3641.00
2023-06-10T11:30:10.354Z,3647.00
2023-06-10T11:31:10.415Z,3643.00
2023-06-10T11:32:10.578Z,3634.00
2023-06-10T11:33:10.506Z,3658.00
2023-06-10T11:34:10.501Z,3666.00
2023-06-10T11:35:10.734Z,3656.00
2023-06-10T11:36:10.594Z,3641.00
2023-06-10T11:37:10.633Z,3648.00
2023-06-10T11:38:10.692Z,3657.00
2023-06-10T11:39:10.746Z,3657.00
2023-06-10T11:40:10.776Z,3644.00
2023-06-10T11:41:10.802Z,3649.00
2023-06-10T11:42:10.855Z,3648.00
2023-06-10T11:43:10.881Z,3657.00
2023-06-10T11:44:10.916Z,3654.00
2023-06-10T11:45:11.247Z,3658.00
2023-06-10T11:46:11.013Z,3650.00
2023-06-10T11:47:11.032Z,3658.00
2023-06-10T11:48:11.109Z,3635.00
2023-06-10T11:49:11.157Z,3654.00
2023-06-10T11:50:11.202Z,3652.00
2023-06-10T11:51:11.187Z,3637.00
2023-06-10T11:52:11.227Z,3640.00
2023-06-10T11:53:11.288Z,3646.00
2023-06-10T11:54:11.322Z,3644.00
2023-06-10T11:55:11.624Z,3640.00
2023-06-10T11:56:11.380Z,3634.00
2023-06-10T11:57:11.391Z,3643.00
2023-06-10T11:58:11.429Z,3622.00
2023-06-10T11:59:11.495Z,3641.00
2023-06-10T12:00:11.523Z,3627.00
2023-06-10T12:01:13.282Z,3621.00
2023-06-10T12:02:11.625Z,3620.00
2023-06-10T12:03:11.725Z,3631.00
2023-06-10T12:04:11.713Z,3634.00
2023-06-10T12:05:12.030Z,3623.00
2023-06-10T12:06:11.811Z,3612.00
2023-06-10T12:07:11.840Z,3621.00
2023-06-10T12:08:11.876Z,3633.00
2023-06-10T12:09:22.682Z,3627.00
2023-06-10T12:10:26.492Z,3628.00